Hood College, Maryland
Current Conditions -  °F | °C
As of 2:45 PM on Tuesday 25 Nov 2014 (Local Time) from KFDK Reporting Station
Clear Clear  
Wind Chill: 57°   Ceiling: Unl
Heat Index: 57°   Visibility: 10mi
Dew Point: 25°   Wind: 6mph
Humidity: 29%   Direction: 290°WNW
Pressure: 30.06"   Gusts: NA
Location:  39.4393°N, 77.3428°W
Report Text: KFDK 251945Z 29005KT 10SM SKC 14/M04 A3006
Loading
Personal Weather Stations






























Interactive Weather Map New forecast layout! Learn more

10-Day Weather Forecast

Advertisements
Track Severe Weather on mobile